Time;durP1;ratioP1;P1;durP2;ratioP2;P2;SDS_P1;SDS_P2;PMS_P1;PMS_P2;Temp;Humidity;BMP_temperature;BMP_pressure;BME280_temperature;BME280_humidity;BME280_pressure;Samples;Min_cycle;Max_cycle;Signal;HPM_P1;HPM_P2
2021/01/16 00:00:28;;;;;;;2.22;1.15;;;20.40;37.60;;;;;;5100460;28;20488;-82
2021/01/16 00:02:53;;;;;;;1.00;0.90;;;20.40;37.60;;;;;;5078444;28;20082;-83
2021/01/16 00:05:24;;;;;;;1.90;1.45;;;20.40;37.60;;;;;;5077556;28;20024;-84
2021/01/16 00:08:02;;;;;;;1.98;1.30;;;20.40;37.60;;;;;;5069770;28;20103;-85
2021/01/16 00:10:29;;;;;;;2.13;1.65;;;20.40;37.60;;;;;;5080839;28;20052;-85
2021/01/16 00:12:55;;;;;;;1.92;1.52;;;20.40;37.60;;;;;;5069777;28;20028;-82
2021/01/16 00:15:22;;;;;;;2.47;1.40;;;20.40;37.70;;;;;;5080959;28;20486;-84
2021/01/16 00:18:00;;;;;;;1.50;1.33;;;20.40;37.70;;;;;;5089023;28;20031;-84
2021/01/16 00:20:26;;;;;;;1.83;1.40;;;20.30;37.60;;;;;;5097081;28;20111;-85
2021/01/16 00:22:52;;;;;;;2.17;1.30;;;20.30;37.50;;;;;;5098370;28;20116;-83
2021/01/16 00:25:18;;;;;;;1.95;1.50;;;20.30;37.60;;;;;;5079480;28;20048;-85
2021/01/16 00:27:45;;;;;;;1.55;1.42;;;20.30;37.60;;;;;;5060628;28;20036;-85
2021/01/16 00:30:11;;;;;;;1.98;1.67;;;20.30;37.50;;;;;;5080527;28;20036;-85
2021/01/16 00:32:38;;;;;;;1.98;1.38;;;20.30;37.60;;;;;;5098140;28;20023;-85
2021/01/16 00:35:12;;;;;;;1.50;1.30;;;20.30;37.60;;;;;;5086333;28;20445;-84
2021/01/16 00:37:38;;;;;;;1.88;1.65;;;20.20;37.60;;;;;;5094069;28;20016;-84
2021/01/16 00:40:07;;;;;;;2.78;1.60;;;20.20;37.60;;;;;;5079844;28;20016;-84
2021/01/16 00:42:33;;;;;;;2.55;1.58;;;20.20;37.70;;;;;;5080276;28;20033;-85
2021/01/16 00:44:59;;;;;;;1.30;1.05;;;20.20;37.60;;;;;;5073263;28;20032;-84
2021/01/16 00:47:24;;;;;;;2.03;1.30;;;20.20;37.60;;;;;;5099577;28;20367;-82
2021/01/16 00:49:50;;;;;;;1.95;1.15;;;20.20;37.60;;;;;;5079290;28;20032;-84
2021/01/16 00:52:16;;;;;;;1.85;1.05;;;20.20;37.60;;;;;;5087223;28;20028;-82
2021/01/16 00:54:42;;;;;;;1.92;1.25;;;20.20;37.60;;;;;;5087339;28;20001;-81
2021/01/16 00:57:07;;;;;;;1.90;1.20;;;20.20;37.60;;;;;;5086137;28;20085;-79
2021/01/16 00:59:33;;;;;;;2.08;0.98;;;20.10;38.00;;;;;;5113671;27;20031;-80
2021/01/16 01:01:58;;;;;;;2.17;1.20;;;20.10;37.50;;;;;;5108181;28;20035;-84
2021/01/16 01:04:24;;;;;;;2.20;1.40;;;20.10;37.60;;;;;;5079246;28;20036;-82
2021/01/16 01:06:50;;;;;;;1.60;1.05;;;20.10;37.60;;;;;;5094858;28;20214;-83
2021/01/16 01:09:15;;;;;;;1.30;1.20;;;20.10;37.70;;;;;;5087996;28;20724;-82
2021/01/16 01:11:41;;;;;;;1.73;1.35;;;20.10;37.60;;;;;;5096455;28;20024;-82
2021/01/16 01:14:06;;;;;;;1.90;1.17;;;20.10;37.60;;;;;;5080204;28;20044;-84
2021/01/16 01:16:32;;;;;;;1.63;1.42;;;20.00;37.50;;;;;;5095015;28;20024;-84
2021/01/16 01:18:58;;;;;;;1.50;0.93;;;20.00;37.50;;;;;;5090349;28;20035;-82
2021/01/16 01:21:24;;;;;;;2.03;1.05;;;20.00;37.60;;;;;;5079533;28;20085;-82
2021/01/16 01:23:50;;;;;;;1.63;1.20;;;20.00;37.60;;;;;;5074890;28;20082;-82
2021/01/16 01:26:15;;;;;;;1.80;1.20;;;20.00;37.60;;;;;;5096321;28;20028;-83
2021/01/16 01:28:41;;;;;;;2.65;0.88;;;20.00;37.60;;;;;;5086325;28;20028;-83
2021/01/16 01:31:07;;;;;;;2.03;1.45;;;20.00;37.40;;;;;;5091389;28;20039;-83
2021/01/16 01:33:32;;;;;;;2.20;0.98;;;20.00;37.60;;;;;;5078319;28;20032;-81
2021/01/16 01:35:58;;;;;;;1.30;1.00;;;20.00;37.50;;;;;;5090935;28;20664;-82
2021/01/16 01:38:23;;;;;;;1.60;1.35;;;20.00;37.50;;;;;;5093165;28;20494;-82
2021/01/16 01:40:49;;;;;;;1.85;1.02;;;19.90;37.60;;;;;;5080014;28;20046;-82
2021/01/16 01:43:15;;;;;;;1.45;0.98;;;19.90;37.70;;;;;;5080184;28;20074;-82
2021/01/16 01:45:41;;;;;;;1.63;1.35;;;19.90;37.60;;;;;;5074663;28;20035;-83
2021/01/16 01:48:07;;;;;;;1.58;1.10;;;19.90;37.60;;;;;;5089658;28;20083;-82
2021/01/16 01:50:34;;;;;;;1.45;0.90;;;19.90;37.50;;;;;;5084961;28;20020;-82
2021/01/16 01:53:02;;;;;;;1.33;1.00;;;19.90;37.60;;;;;;5093685;28;20028;-84
2021/01/16 01:55:28;;;;;;;3.05;1.10;;;19.90;37.60;;;;;;5066568;28;20486;-83
2021/01/16 01:57:54;;;;;;;2.17;1.27;;;19.90;37.60;;;;;;5083766;28;20016;-84
2021/01/16 02:00:21;;;;;;;1.77;0.90;;;19.90;37.70;;;;;;5095868;28;20027;-84
2021/01/16 02:02:48;;;;;;;1.52;0.93;;;19.80;37.60;;;;;;5078274;28;20512;-84
2021/01/16 02:05:14;;;;;;;1.88;1.05;;;19.90;37.60;;;;;;5096270;28;20024;-84
2021/01/16 02:07:40;;;;;;;1.50;0.82;;;19.80;37.50;;;;;;5095289;28;20158;-83
2021/01/16 02:10:10;;;;;;;1.60;1.35;;;19.80;37.70;;;;;;5069553;28;20039;-83
2021/01/16 02:12:37;;;;;;;1.33;0.80;;;19.80;37.50;;;;;;5075078;28;20028;-84
2021/01/16 02:15:24;;;;;;;1.20;1.00;;;19.80;37.70;;;;;;5085228;28;20020;-81
2021/01/16 02:18:19;;;;;;;1.30;0.90;;;19.80;37.70;;;;;;5076513;28;20029;-82
2021/01/16 02:20:47;;;;;;;0.90;0.68;;;19.80;37.60;;;;;;5070988;28;20032;-81
2021/01/16 02:23:12;;;;;;;1.50;1.08;;;19.80;37.60;;;;;;5080492;28;20446;-82
2021/01/16 02:25:41;;;;;;;1.50;1.02;;;19.80;37.60;;;;;;5092644;28;20048;-84
2021/01/16 02:28:18;;;;;;;1.70;0.93;;;19.80;37.60;;;;;;5094301;28;20050;-82
2021/01/16 02:30:45;;;;;;;1.27;0.77;;;19.70;37.60;;;;;;5075677;28;20072;-82
2021/01/16 02:33:16;;;;;;;1.10;0.70;;;19.70;37.60;;;;;;5072477;28;20035;-84
2021/01/16 02:35:59;;;;;;;1.05;0.70;;;19.80;37.70;;;;;;5070296;28;20016;-84
2021/01/16 02:38:32;;;;;;;2.03;0.80;;;19.70;37.60;;;;;;5067497;28;20042;-83
2021/01/16 02:41:03;;;;;;;1.30;0.80;;;19.70;37.60;;;;;;5095666;28;20024;-83
2021/01/16 02:43:34;;;;;;;1.37;0.87;;;19.70;37.50;;;;;;5096450;28;20040;-85
2021/01/16 02:46:38;;;;;;;1.92;0.80;;;19.70;37.60;;;;;;5075567;28;20027;-81
2021/01/16 02:49:20;;;;;;;2.67;0.90;;;19.70;37.60;;;;;;5087863;28;20095;-83
2021/01/16 02:51:55;;;;;;;;;;;19.70;37.70;;;;;;5078376;28;20112;-82
2021/01/16 02:54:22;;;;;;;1.00;0.85;;;19.60;37.50;;;;;;5093376;28;20251;-85
2021/01/16 02:56:48;;;;;;;1.25;0.75;;;19.60;37.60;;;;;;5092418;28;20374;-82
2021/01/16 02:59:14;;;;;;;1.15;1.02;;;19.60;37.50;;;;;;5087185;28;20100;-81
2021/01/16 03:01:40;;;;;;;1.17;0.75;;;19.60;37.60;;;;;;5093729;28;20278;-82
2021/01/16 03:04:06;;;;;;;1.10;0.70;;;19.70;37.70;;;;;;5077319;28;20031;-82
2021/01/16 03:06:33;;;;;;;1.58;0.50;;;19.60;37.60;;;;;;5072740;28;20600;-81
2021/01/16 03:09:02;;;;;;;1.38;0.60;;;19.60;37.60;;;;;;5081752;28;20017;-81
2021/01/16 03:11:28;;;;;;;1.52;0.93;;;19.60;37.50;;;;;;5088316;28;20032;-81
2021/01/16 03:13:59;;;;;;;1.65;0.85;;;19.60;37.50;;;;;;5094671;28;20034;-82
2021/01/16 03:16:28;;;;;;;1.45;0.80;;;19.60;37.50;;;;;;5093766;28;20020;-83
2021/01/16 03:19:01;;;;;;;1.02;0.52;;;19.60;37.60;;;;;;5093018;28;20100;-82
2021/01/16 03:21:26;;;;;;;2.50;1.23;;;19.60;37.70;;;;;;5075795;28;20031;-81
2021/01/16 03:23:52;;;;;;;1.00;0.75;;;19.60;37.70;;;;;;5090435;28;20032;-82
2021/01/16 03:26:17;;;;;;;1.83;1.00;;;19.60;37.60;;;;;;5066684;28;20056;-81
2021/01/16 03:28:43;;;;;;;1.55;0.73;;;19.60;37.60;;;;;;5070670;28;20043;-81
2021/01/16 03:31:08;;;;;;;1.40;0.80;;;19.60;37.60;;;;;;5074372;28;20036;-82
2021/01/16 03:33:34;;;;;;;1.15;0.70;;;19.50;37.50;;;;;;5077731;28;20397;-82
2021/01/16 03:36:00;;;;;;;1.85;0.88;;;19.50;37.60;;;;;;5088246;28;20098;-84
2021/01/16 03:38:25;;;;;;;1.02;0.70;;;19.50;37.60;;;;;;5075320;28;20043;-80
2021/01/16 03:40:51;;;;;;;2.00;0.70;;;19.50;37.60;;;;;;5095377;28;20140;-82
2021/01/16 03:43:17;;;;;;;1.23;0.63;;;19.50;37.60;;;;;;5081539;28;20055;-82
2021/01/16 03:45:43;;;;;;;1.30;0.77;;;19.50;37.70;;;;;;5081163;28;20524;-82
2021/01/16 03:48:08;;;;;;;1.10;0.73;;;19.50;37.70;;;;;;5081672;28;20060;-82
2021/01/16 03:50:34;;;;;;;2.33;0.80;;;19.50;37.70;;;;;;5080035;28;20093;-82
2021/01/16 03:52:59;;;;;;;1.73;0.70;;;19.50;37.60;;;;;;5081957;28;20760;-82
2021/01/16 03:55:25;;;;;;;1.55;0.98;;;19.50;37.70;;;;;;5097571;28;20666;-83
2021/01/16 03:57:51;;;;;;;2.45;0.90;;;19.40;37.60;;;;;;5081662;28;20039;-81
2021/01/16 04:00:17;;;;;;;1.27;0.57;;;19.50;37.60;;;;;;5077118;28;20033;-81
2021/01/16 04:02:42;;;;;;;1.55;0.77;;;19.40;37.70;;;;;;5081548;28;20032;-82
2021/01/16 04:05:08;;;;;;;0.85;0.60;;;19.40;37.70;;;;;;5096156;28;20107;-82
2021/01/16 04:07:34;;;;;;;1.20;0.52;;;19.40;37.70;;;;;;5098484;28;20468;-83
2021/01/16 04:10:00;;;;;;;1.90;1.10;;;19.40;37.70;;;;;;5097624;28;20067;-81
2021/01/16 04:12:28;;;;;;;1.75;1.05;;;19.40;38.20;;;;;;5097492;28;20028;-83
2021/01/16 04:14:54;;;;;;;1.13;0.75;;;19.40;37.60;;;;;;5096469;28;20474;-79
2021/01/16 04:17:19;;;;;;;1.20;0.47;;;19.40;37.60;;;;;;5096670;28;20025;-81
2021/01/16 04:19:45;;;;;;;1.30;0.77;;;19.40;37.60;;;;;;5093681;28;20039;-80
2021/01/16 04:22:10;;;;;;;1.48;0.70;;;19.40;38.20;;;;;;5064286;28;20484;-81
2021/01/16 04:24:36;;;;;;;1.30;0.68;;;19.40;37.70;;;;;;5084587;28;20028;-81
2021/01/16 04:27:01;;;;;;;1.02;0.65;;;19.40;37.70;;;;;;5097748;28;20247;-80
2021/01/16 04:29:27;;;;;;;1.40;0.90;;;19.40;37.60;;;;;;5095679;28;20028;-82
2021/01/16 04:31:53;;;;;;;1.58;0.47;;;19.40;37.60;;;;;;5075197;28;20372;-81
2021/01/16 04:34:18;;;;;;;1.00;0.80;;;19.30;37.60;;;;;;5094268;28;20050;-81
2021/01/16 04:36:44;;;;;;;1.00;0.70;;;19.30;37.70;;;;;;5078047;28;20028;-82
2021/01/16 04:39:10;;;;;;;0.93;0.75;;;19.30;37.60;;;;;;5098262;28;20710;-81
2021/01/16 04:41:36;;;;;;;1.05;0.52;;;19.30;37.70;;;;;;5079123;28;20127;-81
2021/01/16 04:44:03;;;;;;;1.10;0.60;;;19.40;37.70;;;;;;5066902;28;20240;-84
2021/01/16 04:46:29;;;;;;;1.95;0.85;;;19.40;37.70;;;;;;5099812;28;20032;-81
2021/01/16 04:49:01;;;;;;;2.17;0.70;;;19.30;37.60;;;;;;5077693;28;20025;-83
2021/01/16 04:51:31;;;;;;;1.33;0.90;;;19.30;37.70;;;;;;5072281;28;20062;-83
2021/01/16 04:54:00;;;;;;;1.52;0.90;;;19.30;37.70;;;;;;5081710;28;20340;-83
2021/01/16 04:56:30;;;;;;;2.38;0.75;;;19.30;37.70;;;;;;5079529;28;20028;-81
2021/01/16 04:58:56;;;;;;;1.25;0.77;;;19.30;37.70;;;;;;5097819;28;20028;-81
2021/01/16 05:01:26;;;;;;;1.00;0.70;;;19.30;37.70;;;;;;5076588;28;20063;-82
2021/01/16 05:03:52;;;;;;;0.90;0.80;;;19.30;37.70;;;;;;5089721;28;20447;-83
2021/01/16 05:06:19;;;;;;;1.80;0.80;;;19.30;37.70;;;;;;5088335;28;20043;-80
2021/01/16 05:08:45;;;;;;;1.30;0.60;;;19.20;37.70;;;;;;5097994;28;20107;-85
2021/01/16 05:11:39;;;;;;;1.40;0.75;;;19.20;37.70;;;;;;5074796;28;20025;-83
2021/01/16 05:14:12;;;;;;;1.35;0.60;;;19.20;37.70;;;;;;5077796;28;20028;-82
2021/01/16 05:16:59;;;;;;;0.95;0.60;;;19.20;37.80;;;;;;5078952;28;20036;-83
2021/01/16 05:19:36;;;;;;;1.85;0.77;;;19.20;37.70;;;;;;5076150;28;20028;-85
2021/01/16 05:22:03;;;;;;;0.90;0.40;;;19.20;37.70;;;;;;5093226;28;20024;-84
2021/01/16 05:24:29;;;;;;;1.05;0.55;;;19.20;38.20;;;;;;5078680;28;20024;-85
2021/01/16 05:27:02;;;;;;;0.95;0.47;;;19.20;37.70;;;;;;5095707;28;20038;-82
2021/01/16 05:29:30;;;;;;;1.38;0.70;;;19.20;37.70;;;;;;5096345;28;20032;-84
2021/01/16 05:31:57;;;;;;;1.35;0.77;;;19.20;37.70;;;;;;5070671;28;20056;-85
2021/01/16 05:34:25;;;;;;;1.33;0.68;;;19.20;37.70;;;;;;5077689;28;20024;-83
2021/01/16 05:36:51;;;;;;;1.63;0.77;;;19.10;37.70;;;;;;5078454;28;20178;-85
2021/01/16 05:39:19;;;;;;;1.20;0.47;;;19.10;37.70;;;;;;5078753;28;20024;-82
2021/01/16 05:41:45;;;;;;;1.20;0.80;;;19.10;37.70;;;;;;5072715;28;20021;-83
2021/01/16 05:44:12;;;;;;;1.25;0.63;;;19.10;37.70;;;;;;5072167;28;20454;-83
2021/01/16 05:46:43;;;;;;;1.45;0.80;;;19.10;37.70;;;;;;5062779;28;20127;-82
2021/01/16 05:49:14;;;;;;;1.20;0.55;;;19.10;37.80;;;;;;5091492;28;20047;-83
2021/01/16 05:51:47;;;;;;;1.17;0.80;;;19.10;37.70;;;;;;5077685;28;20036;-83
2021/01/16 05:54:14;;;;;;;1.35;0.70;;;19.10;37.70;;;;;;5078709;28;20084;-82
2021/01/16 05:56:41;;;;;;;1.48;0.73;;;19.10;37.70;;;;;;5091471;28;20052;-83
2021/01/16 05:59:19;;;;;;;0.77;0.57;;;19.10;37.80;;;;;;5094226;28;20050;-84
2021/01/16 06:01:47;;;;;;;1.05;0.63;;;19.10;37.70;;;;;;5086900;28;20044;-83
2021/01/16 06:04:17;;;;;;;1.13;0.65;;;19.00;37.70;;;;;;5077753;28;20016;-85
2021/01/16 06:06:43;;;;;;;2.30;0.80;;;19.00;37.70;;;;;;5094890;28;20176;-81
2021/01/16 06:09:18;;;;;;;1.70;0.73;;;19.10;37.80;;;;;;5075495;28;20012;-81
2021/01/16 06:11:49;;;;;;;1.58;0.55;;;19.00;37.80;;;;;;5078294;28;20028;-81
2021/01/16 06:14:17;;;;;;;1.40;0.50;;;19.00;37.70;;;;;;5075545;28;20394;-83
2021/01/16 06:16:54;;;;;;;1.05;0.60;;;19.00;37.80;;;;;;5085929;28;20026;-82
2021/01/16 06:19:25;;;;;;;1.52;0.82;;;19.00;37.80;;;;;;5091996;28;20051;-81
2021/01/16 06:21:51;;;;;;;0.80;0.55;;;19.00;37.80;;;;;;5088891;28;20016;-83
2021/01/16 06:24:22;;;;;;;0.93;0.52;;;19.00;37.70;;;;;;5093203;28;20650;-82
2021/01/16 06:26:59;;;;;;;0.98;0.40;;;19.00;37.80;;;;;;5081938;28;20020;-84
2021/01/16 06:29:36;;;;;;;0.90;0.40;;;19.00;37.80;;;;;;5078426;28;20030;-81
2021/01/16 06:32:09;;;;;;;0.90;0.50;;;19.00;37.80;;;;;;5095319;28;20023;-83
2021/01/16 06:34:39;;;;;;;1.10;0.50;;;19.00;37.80;;;;;;5077450;28;20044;-81
2021/01/16 06:37:10;;;;;;;0.98;0.55;;;19.00;37.80;;;;;;5094800;28;20555;-81
2021/01/16 06:39:40;;;;;;;1.23;0.80;;;19.00;37.80;;;;;;5078468;28;20020;-83
2021/01/16 06:42:09;;;;;;;1.00;0.50;;;19.00;37.80;;;;;;5090664;28;20055;-80
2021/01/16 06:44:35;;;;;;;0.82;0.40;;;19.00;37.70;;;;;;5078104;28;20085;-83
2021/01/16 06:47:01;;;;;;;1.90;0.70;;;19.00;37.80;;;;;;5077839;28;20028;-82
2021/01/16 06:49:29;;;;;;;0.90;0.50;;;19.00;37.80;;;;;;5091643;28;20046;-83
2021/01/16 06:51:57;;;;;;;1.30;0.65;;;19.00;37.80;;;;;;5089723;28;20172;-85
2021/01/16 06:54:30;;;;;;;2.33;0.80;;;19.00;37.80;;;;;;5086196;28;20478;-84
2021/01/16 06:57:07;;;;;;;0.93;0.52;;;18.90;37.80;;;;;;5067733;28;20377;-85
2021/01/16 06:59:35;;;;;;;1.08;0.45;;;18.90;37.80;;;;;;5066986;28;20025;-84
2021/01/16 07:02:23;;;;;;;1.20;0.55;;;19.00;37.80;;;;;;5089530;28;20031;-84
2021/01/16 07:05:29;;;;;;;1.67;0.50;;;18.90;37.80;;;;;;5078892;28;20046;-84
2021/01/16 07:07:58;;;;;;;0.90;0.50;;;18.90;37.80;;;;;;5018914;28;20113;-84
2021/01/16 07:10:31;;;;;;;1.15;0.50;;;18.90;37.80;;;;;;5072974;28;20042;-81
2021/01/16 07:12:59;;;;;;;1.00;0.50;;;18.90;37.80;;;;;;5094907;28;20004;-81
2021/01/16 07:15:29;;;;;;;1.20;0.60;;;18.90;37.70;;;;;;5093068;28;20280;-81
2021/01/16 07:17:55;;;;;;;1.27;0.88;;;19.00;37.90;;;;;;5104678;28;20027;-81
2021/01/16 07:20:23;;;;;;;1.25;0.90;;;18.90;37.70;;;;;;5092507;28;20035;-84
2021/01/16 07:22:51;;;;;;;1.73;0.93;;;18.90;37.80;;;;;;5075479;28;20032;-83
2021/01/16 07:25:19;;;;;;;1.40;0.70;;;19.00;37.80;;;;;;5096614;28;20024;-83
2021/01/16 07:27:47;;;;;;;1.17;0.70;;;18.90;37.80;;;;;;5083085;28;20048;-83
2021/01/16 07:30:16;;;;;;;1.00;0.47;;;18.90;37.80;;;;;;5080866;28;20028;-83
2021/01/16 07:32:49;;;;;;;1.50;0.55;;;18.90;37.70;;;;;;5096279;28;20050;-84
2021/01/16 07:35:23;;;;;;;1.15;0.60;;;18.90;37.80;;;;;;5099333;28;20553;-84
2021/01/16 07:37:51;;;;;;;1.27;0.95;;;18.90;37.90;;;;;;5077683;28;20478;-84
2021/01/16 07:40:19;;;;;;;0.75;0.32;;;18.90;38.00;;;;;;5090792;28;20025;-85
2021/01/16 07:43:08;;;;;;;1.00;0.60;;;18.80;38.00;;;;;;5089226;28;20116;-85
2021/01/16 07:45:39;;;;;;;0.90;0.40;;;18.80;38.10;;;;;;5081912;28;20532;-86
2021/01/16 07:48:06;;;;;;;1.20;0.50;;;18.80;38.30;;;;;;5101008;28;20039;-84
2021/01/16 07:50:32;;;;;;;1.42;0.50;;;18.80;38.20;;;;;;5081986;28;20032;-82
2021/01/16 07:53:05;;;;;;;3.28;0.80;;;18.80;38.10;;;;;;5084409;28;20111;-83
2021/01/16 07:55:37;;;;;;;0.88;0.60;;;18.80;38.10;;;;;;5065373;28;20025;-83
2021/01/16 07:58:14;;;;;;;1.55;0.75;;;18.80;38.00;;;;;;5076866;28;20021;-84
2021/01/16 08:00:52;;;;;;;3.00;0.73;;;18.80;38.00;;;;;;5071161;28;20032;-86
2021/01/16 08:03:36;;;;;;;2.80;1.38;;;18.80;37.90;;;;;;5088026;28;20029;-86
2021/01/16 08:06:20;;;;;;;1.58;1.08;;;18.80;37.80;;;;;;5083579;28;20032;-85
2021/01/16 08:08:55;;;;;;;3.30;1.10;;;18.80;37.70;;;;;;5082447;28;20035;-82
2021/01/16 08:11:32;;;;;;;2.65;1.23;;;18.80;37.70;;;;;;5081871;28;20157;-82
2021/01/16 08:14:04;;;;;;;1.50;1.20;;;18.80;37.60;;;;;;5097477;28;20110;-83
2021/01/16 08:16:30;;;;;;;2.53;1.27;;;18.80;37.60;;;;;;5098185;28;20086;-83
2021/01/16 08:19:10;;;;;;;2.35;1.27;;;18.80;37.60;;;;;;5067531;28;20032;-85
2021/01/16 08:21:37;;;;;;;4.35;1.30;;;18.80;37.60;;;;;;5072239;28;20142;-84
2021/01/16 08:24:06;;;;;;;1.65;0.98;;;18.80;37.60;;;;;;5064821;28;20055;-83
2021/01/16 08:26:32;;;;;;;1.90;1.20;;;18.80;37.60;;;;;;5096380;28;20051;-86
2021/01/16 08:28:59;;;;;;;3.72;1.10;;;18.80;37.60;;;;;;5078146;28;20028;-87
2021/01/16 08:31:26;;;;;;;3.78;1.48;;;18.80;37.50;;;;;;5087539;28;20073;-86
2021/01/16 08:33:52;;;;;;;2.03;1.40;;;18.80;37.60;;;;;;5079115;28;20027;-86
2021/01/16 08:36:20;;;;;;;1.92;1.10;;;18.80;37.70;;;;;;5093158;28;20024;-83
2021/01/16 08:38:48;;;;;;;3.00;1.42;;;18.80;37.70;;;;;;5099685;28;20016;-86
2021/01/16 08:41:29;;;;;;;2.25;1.10;;;18.80;37.80;;;;;;5099727;28;20073;-84
2021/01/16 08:43:57;;;;;;;3.05;1.20;;;18.80;37.70;;;;;;5082280;28;20039;-86
2021/01/16 08:46:34;;;;;;;3.58;1.45;;;18.80;37.70;;;;;;5093876;28;20036;-85
2021/01/16 08:49:14;;;;;;;2.20;1.50;;;18.80;37.60;;;;;;5071224;28;20028;-83
2021/01/16 08:51:41;;;;;;;3.58;1.33;;;18.80;37.60;;;;;;5080623;28;20027;-85
2021/01/16 08:54:09;;;;;;;2.42;1.60;;;18.80;37.60;;;;;;5078033;28;20122;-84
2021/01/16 08:56:35;;;;;;;4.43;1.17;;;18.80;37.60;;;;;;5079261;28;20028;-85
2021/01/16 08:59:19;;;;;;;2.35;1.00;;;18.80;37.60;;;;;;5073313;28;20065;-84
2021/01/16 09:01:53;;;;;;;3.40;1.55;;;18.80;37.60;;;;;;5080004;28;20028;-85
2021/01/16 09:04:22;;;;;;;2.45;1.60;;;18.80;37.50;;;;;;5066197;28;20029;-84
2021/01/16 09:06:49;;;;;;;1.75;1.30;;;18.80;37.50;;;;;;5078995;28;20139;-84
2021/01/16 09:09:23;;;;;;;2.75;1.65;;;18.80;37.50;;;;;;5067322;28;20474;-84
2021/01/16 09:12:03;;;;;;;2.95;1.35;;;18.80;37.50;;;;;;5077960;28;20035;-81
2021/01/16 09:14:29;;;;;;;2.25;1.50;;;18.80;37.50;;;;;;5091056;28;20095;-84
2021/01/16 09:16:54;;;;;;;2.85;1.80;;;18.80;37.50;;;;;;5077404;28;20102;-85
2021/01/16 09:19:29;;;;;;;2.25;1.55;;;18.80;37.50;;;;;;5074197;28;20080;-83
2021/01/16 09:22:16;;;;;;;2.83;1.80;;;18.80;37.50;;;;;;5072370;28;20027;-84
2021/01/16 09:24:41;;;;;;;2.25;1.63;;;18.80;37.50;;;;;;5078965;28;20364;-86
2021/01/16 09:27:23;;;;;;;2.03;1.55;;;18.80;37.50;;;;;;5097454;28;20024;-84
2021/01/16 09:29:49;;;;;;;2.50;1.88;;;18.90;37.50;;;;;;5076330;28;20021;-86
2021/01/16 09:32:30;;;;;;;2.28;1.80;;;18.80;37.50;;;;;;5078368;28;20079;-85
2021/01/16 09:34:56;;;;;;;3.63;1.88;;;18.80;37.50;;;;;;5094881;28;20034;-85
2021/01/16 09:37:30;;;;;;;2.67;1.50;;;18.80;37.50;;;;;;5076496;28;20052;-84
2021/01/16 09:40:12;;;;;;;3.55;1.85;;;18.80;37.70;;;;;;5070846;28;20038;-86
2021/01/16 09:42:44;;;;;;;3.08;1.77;;;18.80;37.60;;;;;;5080504;28;20045;-84
2021/01/16 09:45:10;;;;;;;;;;;19.00;37.40;;;;;;5080722;28;20036;-85
2021/01/16 09:47:41;;;;;;;1.73;1.42;;;19.20;37.20;;;;;;5092320;28;20018;-84
2021/01/16 09:50:14;;;;;;;2.47;1.75;;;19.40;37.00;;;;;;5072112;28;20024;-86
2021/01/16 09:52:51;;;;;;;3.03;1.95;;;19.50;36.80;;;;;;5076977;28;20027;-84
2021/01/16 09:55:39;;;;;;;3.00;1.90;;;19.60;36.70;;;;;;5089187;28;20020;-86
2021/01/16 09:58:40;;;;;;;2.72;1.98;;;19.70;36.60;;;;;;5078060;28;20052;-84
2021/01/16 10:01:23;;;;;;;2.13;1.73;;;19.80;36.50;;;;;;5092767;28;20050;-85
2021/01/16 10:03:51;;;;;;;2.80;2.20;;;19.90;36.40;;;;;;5096896;28;20427;-82
2021/01/16 10:06:18;;;;;;;4.38;1.92;;;19.90;36.40;;;;;;5076669;28;20029;-86
2021/01/16 10:08:46;;;;;;;2.47;2.03;;;20.00;36.40;;;;;;5066889;28;20031;-85
2021/01/16 10:11:16;;;;;;;3.58;1.88;;;20.00;36.40;;;;;;5076214;28;20036;-85
2021/01/16 10:13:42;;;;;;;2.80;2.05;;;20.10;36.30;;;;;;5076717;28;20077;-85
2021/01/16 10:16:09;;;;;;;2.90;2.42;;;20.10;36.30;;;;;;5076609;28;20021;-84
2021/01/16 10:18:36;;;;;;;2.45;2.17;;;20.10;36.20;;;;;;5071630;28;20061;-84
2021/01/16 10:21:02;;;;;;;1.83;1.70;;;20.10;36.30;;;;;;5072869;28;20082;-83
2021/01/16 10:23:29;;;;;;;3.85;2.47;;;20.20;36.30;;;;;;5077195;28;20032;-83
2021/01/16 10:26:06;;;;;;;2.28;1.60;;;20.20;36.20;;;;;;5070695;28;20020;-85
2021/01/16 10:28:37;;;;;;;3.28;1.80;;;20.30;36.20;;;;;;5058794;28;20059;-84
2021/01/16 10:31:04;;;;;;;2.47;1.80;;;20.30;36.10;;;;;;5076095;28;20149;-82
2021/01/16 10:33:50;;;;;;;3.20;2.05;;;20.30;36.10;;;;;;5078848;28;20354;-83
2021/01/16 10:36:18;;;;;;;2.80;2.22;;;20.40;36.10;;;;;;5095047;28;20036;-84
2021/01/16 10:38:51;;;;;;;1.98;1.88;;;20.30;36.10;;;;;;5095918;28;20016;-85
2021/01/16 10:41:35;;;;;;;2.50;2.15;;;20.30;36.20;;;;;;5095823;28;20051;-83
2021/01/16 10:44:04;;;;;;;2.60;2.20;;;20.30;36.20;;;;;;5078454;28;20058;-85
2021/01/16 10:46:38;;;;;;;3.20;2.10;;;20.30;36.30;;;;;;5069682;28;20096;-84
2021/01/16 10:49:30;;;;;;;2.10;1.90;;;20.30;36.50;;;;;;5094248;28;20027;-85
2021/01/16 10:52:03;;;;;;;2.63;1.85;;;20.20;36.50;;;;;;5064863;28;20225;-83
2021/01/16 10:54:30;;;;;;;2.58;1.88;;;20.20;36.60;;;;;;5076812;28;20032;-85
2021/01/16 10:57:01;;;;;;;2.67;1.88;;;20.20;36.70;;;;;;5094936;28;20035;-85
2021/01/16 10:59:29;;;;;;;2.95;1.83;;;20.20;36.70;;;;;;5074747;28;20093;-85
2021/01/16 11:01:55;;;;;;;4.78;2.53;;;20.10;36.70;;;;;;5073464;28;20062;-85
2021/01/16 11:04:25;;;;;;;4.05;2.72;;;20.10;36.70;;;;;;5063103;28;20067;-85
2021/01/16 11:07:02;;;;;;;3.30;2.67;;;20.10;36.80;;;;;;5076949;28;20436;-84
2021/01/16 11:09:33;;;;;;;3.67;2.60;;;20.10;36.80;;;;;;5073200;28;20029;-85
2021/01/16 11:12:00;;;;;;;3.42;2.33;;;20.10;36.90;;;;;;5057226;28;20024;-85
2021/01/16 11:14:33;;;;;;;2.80;2.55;;;20.00;36.90;;;;;;5073152;28;20036;-85
2021/01/16 11:16:58;;;;;;;2.45;2.25;;;20.00;37.00;;;;;;5073174;28;20016;-85
2021/01/16 11:19:31;;;;;;;3.40;2.67;;;20.00;37.00;;;;;;5067309;28;20117;-85
2021/01/16 11:22:04;;;;;;;2.40;2.00;;;19.90;37.00;;;;;;5075949;28;20111;-84
2021/01/16 11:24:55;;;;;;;3.25;2.38;;;19.90;37.10;;;;;;5073259;28;20890;-85
2021/01/16 11:27:22;;;;;;;2.90;2.28;;;19.90;37.10;;;;;;5080908;28;20063;-85
2021/01/16 11:29:48;;;;;;;2.55;2.35;;;19.80;37.10;;;;;;5089128;28;20056;-85
2021/01/16 11:32:22;;;;;;;2.88;2.13;;;19.80;37.10;;;;;;5084926;28;20527;-84
2021/01/16 11:35:10;;;;;;;2.95;2.22;;;19.80;37.20;;;;;;5082029;28;20494;-85
2021/01/16 11:37:48;;;;;;;3.00;2.17;;;19.80;37.20;;;;;;5067769;28;20512;-85
2021/01/16 11:40:27;;;;;;;2.38;2.17;;;19.70;37.20;;;;;;5077038;28;20118;-84
2021/01/16 11:42:55;;;;;;;3.28;2.42;;;19.70;37.20;;;;;;5076982;28;20028;-84
2021/01/16 11:45:25;;;;;;;2.95;1.85;;;19.70;37.20;;;;;;5093797;28;20024;-85
2021/01/16 11:47:52;;;;;;;4.30;2.80;;;19.70;37.20;;;;;;5076559;28;20055;-86
2021/01/16 11:50:19;;;;;;;3.00;2.35;;;19.70;37.20;;;;;;5060180;28;20085;-85
2021/01/16 11:52:45;;;;;;;2.35;2.15;;;19.70;37.10;;;;;;5073979;28;20021;-85
2021/01/16 11:55:12;;;;;;;3.70;2.70;;;19.70;37.20;;;;;;5073286;28;20029;-85
2021/01/16 11:57:39;;;;;;;5.03;2.20;;;19.60;37.50;;;;;;5057205;28;20046;-85
2021/01/16 12:00:06;;;;;;;3.65;2.50;;;19.60;37.70;;;;;;5060210;28;20111;-85
2021/01/16 12:02:32;;;;;;;3.03;2.35;;;19.60;37.70;;;;;;5080364;28;20085;-85
2021/01/16 12:04:58;;;;;;;3.13;2.58;;;19.60;37.60;;;;;;5096190;28;20024;-85
2021/01/16 12:07:25;;;;;;;2.90;1.92;;;19.60;37.80;;;;;;5088204;28;20064;-85
2021/01/16 12:09:53;;;;;;;2.53;2.17;;;19.50;37.90;;;;;;5069129;28;20062;-85
2021/01/16 12:12:20;;;;;;;2.53;2.00;;;19.50;38.40;;;;;;5079272;28;20027;-85
2021/01/16 12:14:46;;;;;;;2.45;2.13;;;19.50;37.90;;;;;;5081308;28;20032;-85
2021/01/16 12:17:13;;;;;;;2.38;2.17;;;19.50;37.90;;;;;;5073882;28;20028;-85
2021/01/16 12:19:39;;;;;;;2.58;2.25;;;19.50;37.90;;;;;;5084706;28;20039;-85
2021/01/16 12:22:11;;;;;;;3.42;2.30;;;19.50;37.90;;;;;;5070632;28;20411;-85
2021/01/16 12:24:38;;;;;;;;;;;19.50;37.90;;;;;;5078446;28;20024;-85
2021/01/16 12:27:07;;;;;;;2.30;1.83;;;19.40;37.90;;;;;;5065484;28;19904;-85
2021/01/16 12:29:39;;;;;;;1.98;1.60;;;19.40;37.90;;;;;;5069273;28;20070;-85
2021/01/16 12:32:10;;;;;;;3.45;1.75;;;19.50;37.90;;;;;;5094171;28;20025;-85
2021/01/16 12:34:53;;;;;;;3.53;1.77;;;19.40;37.90;;;;;;5071757;28;20030;-85
2021/01/16 12:37:30;;;;;;;3.03;2.03;;;19.40;37.90;;;;;;5077104;28;20116;-85
2021/01/16 12:40:04;;;;;;;2.60;1.88;;;19.40;37.90;;;;;;5062333;28;20135;-85
2021/01/16 12:42:32;;;;;;;2.35;1.45;;;19.50;37.90;;;;;;5078856;28;20027;-84
2021/01/16 12:45:28;;;;;;;2.55;1.33;;;19.70;37.70;;;;;;5091897;28;20025;-85
2021/01/16 12:47:55;;;;;;;1.83;1.58;;;19.80;37.40;;;;;;5070489;28;20036;-84
2021/01/16 12:50:23;;;;;;;2.13;1.80;;;20.00;37.30;;;;;;5092279;28;20029;-85
2021/01/16 12:52:53;;;;;;;2.28;1.67;;;20.10;37.20;;;;;;5096219;28;20028;-85
2021/01/16 12:55:24;;;;;;;1.83;1.52;;;20.20;37.00;;;;;;5074738;28;20016;-86
2021/01/16 12:57:54;;;;;;;1.50;1.40;;;20.30;37.00;;;;;;5075158;28;20595;-85
2021/01/16 13:00:25;;;;;;;1.83;1.30;;;20.40;36.90;;;;;;5086078;28;20062;-85
2021/01/16 13:02:58;;;;;;;2.35;1.33;;;20.40;36.80;;;;;;5079506;28;20035;-85